Time;durP1;ratioP1;P1;durP2;ratioP2;P2;SDS_P1;SDS_P2;PMS_P1;PMS_P2;Temp;Humidity;BMP_temperature;BMP_pressure;BME280_temperature;BME280_humidity;BME280_pressure;Samples;Min_cycle;Max_cycle;Signal;HPM_P1;HPM_P2
2022/09/11 00:00:38;;;;;;;5.60;1.50;;;16.30;99.90;;;;;;5072835;28;19919;-65
2022/09/11 00:03:04;;;;;;;4.93;1.77;;;16.20;99.90;;;;;;5077067;28;20365;-65
2022/09/11 00:05:30;;;;;;;5.53;1.52;;;16.20;99.90;;;;;;5077126;28;20348;-65
2022/09/11 00:07:55;;;;;;;10.00;2.28;;;16.20;99.90;;;;;;5077027;28;20021;-65
2022/09/11 00:10:23;;;;;;;3.75;1.70;;;16.30;99.90;;;;;;5076751;28;20025;-65
2022/09/11 00:12:49;;;;;;;7.55;1.85;;;16.30;99.90;;;;;;5077277;28;20477;-65
2022/09/11 00:15:15;;;;;;;;;;;16.30;99.90;;;;;;5077051;28;20564;-66
2022/09/11 00:17:40;;;;;;;7.25;1.70;;;16.30;99.90;;;;;;5076780;28;19951;-65
2022/09/11 00:20:06;;;;;;;2.57;1.43;;;16.30;99.90;;;;;;5076258;28;20036;-65
2022/09/11 00:22:32;;;;;;;3.22;1.50;;;16.30;99.90;;;;;;5076089;28;20126;-65
2022/09/11 00:24:58;;;;;;;4.53;1.30;;;16.20;99.90;;;;;;5076187;28;20052;-65
2022/09/11 00:27:24;;;;;;;5.50;1.40;;;16.30;99.90;;;;;;5076080;28;20021;-65
2022/09/11 00:29:49;;;;;;;5.68;1.50;;;16.30;99.90;;;;;;5076219;28;20386;-65
2022/09/11 00:32:15;;;;;;;9.70;1.63;;;16.30;99.90;;;;;;5058058;28;20039;-65
2022/09/11 00:34:40;;;;;;;3.50;1.50;;;16.30;99.90;;;;;;5076121;28;20074;-65
2022/09/11 00:37:06;;;;;;;5.82;1.70;;;16.30;99.90;;;;;;5076006;28;20032;-65
2022/09/11 00:39:32;;;;;;;4.53;1.60;;;16.30;99.90;;;;;;5076166;28;20125;-65
2022/09/11 00:41:58;;;;;;;7.05;1.98;;;16.30;99.90;;;;;;5075838;28;20158;-65
2022/09/11 00:44:23;;;;;;;5.00;1.77;;;16.30;99.90;;;;;;5076537;28;20024;-65
2022/09/11 00:46:57;;;;;;;6.10;1.77;;;16.30;99.90;;;;;;5076790;28;20473;-65
2022/09/11 00:49:29;;;;;;;3.90;1.98;;;16.40;99.90;;;;;;5076744;28;20169;-65
2022/09/11 00:52:07;;;;;;;6.70;1.90;;;16.40;99.90;;;;;;5076647;28;20476;-65
2022/09/11 00:54:43;;;;;;;4.50;1.58;;;16.40;99.90;;;;;;5076734;28;20033;-65
2022/09/11 00:57:09;;;;;;;10.20;2.17;;;16.40;99.90;;;;;;5076652;28;20017;-65
2022/09/11 00:59:38;;;;;;;7.43;2.17;;;16.40;99.90;;;;;;5058162;28;20064;-64
2022/09/11 01:02:05;;;;;;;4.65;1.75;;;16.40;99.90;;;;;;5076297;28;20054;-64
2022/09/11 01:04:31;;;;;;;8.52;1.70;;;16.40;99.90;;;;;;5076402;28;20056;-64
2022/09/11 01:06:59;;;;;;;7.10;2.13;;;16.40;99.90;;;;;;5076426;28;20074;-64
2022/09/11 01:09:28;;;;;;;7.30;1.90;;;16.40;99.90;;;;;;5076132;28;20522;-66
2022/09/11 01:12:09;;;;;;;4.75;1.52;;;16.50;99.90;;;;;;5076690;28;20033;-66
2022/09/11 01:15:08;;;;;;;6.00;1.60;;;16.40;99.90;;;;;;5076245;28;20027;-66
2022/09/11 01:17:55;;;;;;;4.00;1.65;;;16.40;99.90;;;;;;5075307;28;20497;-66
2022/09/11 01:20:37;;;;;;;5.13;2.10;;;16.40;99.90;;;;;;5057390;28;20029;-66
2022/09/11 01:23:06;;;;;;;4.25;1.65;;;16.40;99.90;;;;;;5057566;28;20709;-64
2022/09/11 01:26:00;;;;;;;4.30;1.92;;;16.30;99.90;;;;;;5075361;28;20033;-66
2022/09/11 01:28:43;;;;;;;4.85;2.10;;;16.40;99.90;;;;;;5074968;28;20047;-66
2022/09/11 01:31:13;;;;;;;5.95;1.90;;;16.40;99.90;;;;;;5075456;28;20108;-66
2022/09/11 01:33:47;;;;;;;5.97;1.92;;;16.40;99.90;;;;;;5075280;28;20377;-66
2022/09/11 01:36:29;;;;;;;5.80;2.30;;;16.40;99.90;;;;;;5075316;28;20094;-66
2022/09/11 01:38:59;;;;;;;4.82;2.00;;;16.30;99.90;;;;;;5075426;28;20088;-66
2022/09/11 01:41:39;;;;;;;4.68;1.85;;;16.30;99.90;;;;;;5075665;28;20094;-66
2022/09/11 01:44:07;;;;;;;7.53;2.22;;;16.30;99.90;;;;;;5075303;28;20025;-66
2022/09/11 01:46:41;;;;;;;7.22;1.90;;;16.30;99.90;;;;;;5075008;28;20020;-66
2022/09/11 01:49:16;;;;;;;5.47;2.30;;;16.40;99.90;;;;;;5075228;28;20074;-65
2022/09/11 01:51:42;;;;;;;5.90;1.90;;;16.40;99.90;;;;;;5075651;28;20024;-65
2022/09/11 01:54:15;;;;;;;3.22;1.70;;;16.40;99.90;;;;;;5075873;28;20100;-66
2022/09/11 01:56:54;;;;;;;6.00;2.30;;;16.30;99.90;;;;;;5075323;28;20052;-65
2022/09/11 01:59:26;;;;;;;3.72;2.35;;;16.30;99.90;;;;;;5074464;28;20029;-65
2022/09/11 02:01:58;;;;;;;5.10;1.90;;;16.30;99.90;;;;;;5074591;28;20033;-65
2022/09/11 02:04:36;;;;;;;4.28;2.00;;;16.30;99.90;;;;;;5056661;28;20056;-65
2022/09/11 02:07:18;;;;;;;3.72;2.08;;;16.40;99.90;;;;;;5075459;28;20120;-65
2022/09/11 02:09:53;;;;;;;4.30;2.03;;;16.40;99.90;;;;;;5074473;28;20042;-66
2022/09/11 02:12:23;;;;;;;3.50;2.10;;;16.40;99.90;;;;;;5074380;28;20063;-66
2022/09/11 02:14:52;;;;;;;4.85;2.17;;;16.30;99.90;;;;;;5075182;28;20055;-66
2022/09/11 02:17:57;;;;;;;4.65;2.08;;;16.40;99.90;;;;;;5074516;28;20428;-66
2022/09/11 02:20:23;;;;;;;7.95;2.10;;;16.40;99.90;;;;;;5074621;28;20425;-64
2022/09/11 02:22:48;;;;;;;5.50;2.17;;;16.40;99.90;;;;;;5056308;28;20116;-65
2022/09/11 02:25:15;;;;;;;3.47;2.33;;;16.50;99.90;;;;;;5056291;28;20062;-65
2022/09/11 02:27:41;;;;;;;6.38;2.00;;;16.40;99.90;;;;;;5074151;28;20108;-65
2022/09/11 02:30:07;;;;;;;6.53;2.80;;;16.40;99.90;;;;;;5073950;28;20060;-65
2022/09/11 02:32:35;;;;;;;7.55;2.22;;;16.40;99.90;;;;;;5056057;28;20459;-65
2022/09/11 02:35:01;;;;;;;6.85;2.45;;;16.40;99.90;;;;;;5073791;28;20032;-65
2022/09/11 02:38:03;;;;;;;5.15;2.20;;;16.50;99.90;;;;;;5055870;28;20028;-66
2022/09/11 02:41:19;;;;;;;6.28;2.22;;;16.50;99.90;;;;;;5073720;28;20447;-65
2022/09/11 02:43:53;;;;;;;4.35;2.00;;;16.60;99.90;;;;;;4973174;28;20491;-65
2022/09/11 02:46:56;;;;;;;4.78;2.45;;;16.60;99.90;;;;;;4973216;28;20054;-65
2022/09/11 02:49:37;;;;;;;11.70;3.35;;;16.50;99.90;;;;;;4972931;28;20086;-65
2022/09/11 02:52:30;;;;;;;6.25;2.60;;;16.50;99.90;;;;;;4973057;28;20106;-65
2022/09/11 02:55:11;;;;;;;5.03;2.50;;;16.40;99.90;;;;;;4973188;28;20410;-65
2022/09/11 02:58:01;;;;;;;7.35;2.90;;;16.30;99.90;;;;;;4973045;28;20031;-66
2022/09/11 03:00:27;;;;;;;4.72;2.25;;;16.20;99.90;;;;;;4952954;28;20086;-65
2022/09/11 03:02:53;;;;;;;6.82;2.63;;;16.20;99.90;;;;;;4972581;28;20034;-65
2022/09/11 03:05:20;;;;;;;10.65;3.22;;;16.20;99.90;;;;;;4972748;28;20102;-65
2022/09/11 03:07:46;;;;;;;6.68;2.65;;;16.20;99.90;;;;;;4956595;28;20155;-65
2022/09/11 03:10:11;;;;;;;3.85;2.60;;;16.20;99.90;;;;;;4972628;28;20532;-65
2022/09/11 03:12:38;;;;;;;5.22;2.65;;;16.20;99.90;;;;;;4972567;28;20056;-65
2022/09/11 03:15:04;;;;;;;5.82;3.05;;;16.10;99.90;;;;;;4972580;28;20085;-65
2022/09/11 03:17:31;;;;;;;7.47;3.30;;;16.20;99.90;;;;;;4972763;28;20433;-65
2022/09/11 03:19:57;;;;;;;8.63;3.40;;;16.20;99.90;;;;;;5049880;28;20052;-64
2022/09/11 03:22:22;;;;;;;5.07;2.38;;;16.20;99.90;;;;;;5074121;28;20493;-64
2022/09/11 03:24:48;;;;;;;6.00;2.65;;;16.30;99.90;;;;;;5055686;28;20074;-65
2022/09/11 03:27:13;;;;;;;6.87;2.70;;;16.30;99.90;;;;;;5073235;28;20032;-65
2022/09/11 03:29:39;;;;;;;8.10;2.67;;;16.20;99.90;;;;;;5055291;28;20259;-65
2022/09/11 03:32:05;;;;;;;6.25;2.47;;;16.30;99.90;;;;;;5073271;28;20031;-66
2022/09/11 03:34:30;;;;;;;4.13;2.13;;;16.30;99.90;;;;;;5055184;28;20419;-65
2022/09/11 03:36:56;;;;;;;6.90;2.70;;;16.30;99.90;;;;;;5072621;28;20044;-66
2022/09/11 03:39:22;;;;;;;6.63;2.78;;;16.30;99.90;;;;;;5055298;28;20256;-65
2022/09/11 03:41:47;;;;;;;5.43;3.17;;;16.40;99.90;;;;;;5055194;28;20056;-66
2022/09/11 03:44:13;;;;;;;5.90;2.73;;;16.30;99.90;;;;;;5072876;28;20024;-65
2022/09/11 03:46:38;;;;;;;5.05;2.50;;;16.30;99.90;;;;;;5072735;28;20017;-66
2022/09/11 03:49:05;;;;;;;13.80;3.03;;;16.30;99.90;;;;;;5072711;28;20108;-66
2022/09/11 03:51:31;;;;;;;;;;;16.20;99.90;;;;;;5073336;28;20017;-66
2022/09/11 03:53:59;;;;;;;9.98;3.60;;;16.10;99.90;;;;;;5073041;28;19904;-66
2022/09/11 03:56:26;;;;;;;9.85;3.28;;;16.20;99.90;;;;;;5072771;28;20024;-65
2022/09/11 03:58:56;;;;;;;4.10;2.63;;;16.20;99.90;;;;;;5054819;28;20032;-65
2022/09/11 04:01:21;;;;;;;7.90;3.17;;;16.20;99.90;;;;;;5055249;28;20350;-66
2022/09/11 04:03:47;;;;;;;8.27;3.10;;;16.20;99.90;;;;;;5073832;28;20036;-65
2022/09/11 04:06:12;;;;;;;7.50;2.97;;;16.30;99.90;;;;;;5073859;28;20139;-65
2022/09/11 04:08:40;;;;;;;6.07;3.00;;;16.20;99.90;;;;;;5073021;28;20271;-65
2022/09/11 04:11:05;;;;;;;8.07;3.10;;;16.30;99.90;;;;;;5054810;28;20023;-66
2022/09/11 04:13:33;;;;;;;6.88;2.92;;;16.30;99.90;;;;;;5073030;28;20385;-65
2022/09/11 04:16:01;;;;;;;6.60;2.70;;;16.30;99.90;;;;;;5058563;28;20032;-67
2022/09/11 04:18:28;;;;;;;5.72;3.33;;;16.30;99.90;;;;;;5073658;28;20427;-65
2022/09/11 04:20:53;;;;;;;7.30;2.95;;;16.20;99.90;;;;;;5072865;28;20066;-66
2022/09/11 04:23:19;;;;;;;4.80;3.20;;;16.20;99.90;;;;;;5054739;28;20024;-66
2022/09/11 04:25:45;;;;;;;9.70;3.10;;;16.30;99.90;;;;;;5072533;28;20107;-65
2022/09/11 04:28:11;;;;;;;7.50;2.90;;;16.30;99.90;;;;;;5054581;28;20064;-65
2022/09/11 04:30:37;;;;;;;6.97;3.00;;;16.30;99.90;;;;;;5072535;28;20530;-66
2022/09/11 04:33:04;;;;;;;6.13;2.83;;;16.30;99.90;;;;;;5072637;28;20033;-65
2022/09/11 04:35:39;;;;;;;6.38;2.78;;;16.30;99.90;;;;;;5072710;28;20366;-65
2022/09/11 04:38:05;;;;;;;10.13;3.78;;;16.30;99.90;;;;;;5072703;28;20025;-65
2022/09/11 04:40:32;;;;;;;4.57;2.75;;;16.20;99.90;;;;;;5072597;28;20481;-65
2022/09/11 04:42:59;;;;;;;6.18;3.35;;;16.30;99.90;;;;;;5072315;28;20086;-65
2022/09/11 04:45:25;;;;;;;7.10;2.97;;;16.30;99.90;;;;;;5073896;28;20017;-65
2022/09/11 04:47:51;;;;;;;5.80;3.17;;;16.30;99.90;;;;;;5075301;28;20337;-65
2022/09/11 04:50:17;;;;;;;7.35;3.17;;;16.30;99.90;;;;;;5077701;28;20063;-66
2022/09/11 04:52:44;;;;;;;5.03;3.35;;;16.30;99.90;;;;;;5076888;28;20033;-66
2022/09/11 04:55:10;;;;;;;6.50;3.17;;;16.30;99.90;;;;;;5058886;28;20032;-65
2022/09/11 04:57:36;;;;;;;;;;;16.30;99.90;;;;;;5076271;28;20016;-64
2022/09/11 05:00:03;;;;;;;6.35;3.75;;;16.20;99.90;;;;;;5057339;28;20203;-64
2022/09/11 05:02:29;;;;;;;5.97;3.40;;;16.30;99.90;;;;;;5075274;28;20089;-64
2022/09/11 05:04:54;;;;;;;5.23;3.37;;;16.40;99.90;;;;;;5076215;28;20026;-65
2022/09/11 05:07:20;;;;;;;5.97;3.58;;;16.30;99.90;;;;;;5057536;28;20503;-65
2022/09/11 05:09:46;;;;;;;6.23;3.40;;;16.30;99.90;;;;;;5075483;28;20024;-65
2022/09/11 05:12:11;;;;;;;6.95;3.95;;;16.30;99.90;;;;;;5075732;28;20349;-65
2022/09/11 05:14:37;;;;;;;6.80;3.43;;;16.20;99.90;;;;;;5075958;28;20075;-67
2022/09/11 05:17:03;;;;;;;6.90;3.80;;;16.20;99.90;;;;;;5057449;28;20267;-65
2022/09/11 05:19:28;;;;;;;9.13;3.60;;;16.20;99.90;;;;;;5076231;28;20404;-67
2022/09/11 05:21:54;;;;;;;6.33;3.63;;;16.20;99.90;;;;;;5075196;28;20025;-66
2022/09/11 05:24:20;;;;;;;5.70;3.35;;;16.20;99.90;;;;;;5075272;28;20470;-64
2022/09/11 05:26:45;;;;;;;9.15;3.55;;;16.20;99.90;;;;;;5075240;28;20028;-65
2022/09/11 05:29:13;;;;;;;7.40;3.92;;;16.20;99.90;;;;;;5075622;28;20138;-65
2022/09/11 05:31:39;;;;;;;7.82;4.07;;;16.20;99.90;;;;;;5075123;28;20024;-66
2022/09/11 05:34:05;;;;;;;7.60;3.90;;;16.20;99.90;;;;;;5076198;28;20031;-65
2022/09/11 05:36:32;;;;;;;6.45;3.72;;;16.10;99.90;;;;;;5057642;28;20029;-65
2022/09/11 05:38:58;;;;;;;8.20;3.63;;;16.20;99.90;;;;;;5075970;28;20031;-67
2022/09/11 05:41:24;;;;;;;9.88;4.25;;;16.10;99.90;;;;;;5074939;28;20020;-67
2022/09/11 05:43:50;;;;;;;6.80;4.13;;;16.20;99.90;;;;;;5075437;28;20028;-67
2022/09/11 05:46:16;;;;;;;;;;;16.20;99.90;;;;;;5075833;28;20028;-67
2022/09/11 05:48:43;;;;;;;6.97;3.97;;;16.30;99.90;;;;;;5074898;28;19904;-67
2022/09/11 05:51:20;;;;;;;9.43;4.07;;;16.30;99.90;;;;;;5075512;28;20044;-67
2022/09/11 05:53:46;;;;;;;7.30;3.70;;;16.30;99.90;;;;;;5075188;28;20048;-68
2022/09/11 05:56:17;;;;;;;7.50;3.60;;;16.40;99.90;;;;;;5075143;28;20107;-67
2022/09/11 05:58:45;;;;;;;10.50;4.45;;;16.40;99.90;;;;;;5074376;28;20035;-67
2022/09/11 06:01:12;;;;;;;6.45;3.70;;;16.50;99.90;;;;;;5075030;28;20477;-66
2022/09/11 06:03:39;;;;;;;8.60;4.05;;;16.50;99.90;;;;;;5075631;28;20031;-66
2022/09/11 06:06:12;;;;;;;8.60;4.10;;;16.50;99.90;;;;;;5075496;28;20393;-67
2022/09/11 06:08:39;;;;;;;7.75;4.28;;;16.60;99.90;;;;;;5056859;28;20024;-66
2022/09/11 06:11:06;;;;;;;7.40;4.20;;;16.60;99.90;;;;;;5075369;28;20024;-67
2022/09/11 06:13:40;;;;;;;9.13;4.20;;;16.60;99.90;;;;;;5075257;28;20373;-66
2022/09/11 06:16:10;;;;;;;7.53;4.30;;;16.80;99.90;;;;;;5075553;28;20376;-65
2022/09/11 06:18:36;;;;;;;6.30;3.88;;;16.80;99.90;;;;;;5074353;28;20033;-67
2022/09/11 06:21:14;;;;;;;7.30;4.10;;;16.80;99.90;;;;;;5075096;28;20551;-66
2022/09/11 06:23:40;;;;;;;10.18;3.72;;;16.80;99.90;;;;;;5056391;28;20040;-67
2022/09/11 06:26:09;;;;;;;6.20;4.00;;;16.80;99.90;;;;;;5074273;28;20120;-66
2022/09/11 06:28:35;;;;;;;6.88;4.03;;;16.80;99.90;;;;;;5056133;28;20029;-67
2022/09/11 06:31:04;;;;;;;11.57;4.15;;;16.90;99.90;;;;;;5075077;28;20038;-67
2022/09/11 06:33:35;;;;;;;9.52;4.30;;;16.90;99.90;;;;;;5074174;28;20070;-67
2022/09/11 06:36:03;;;;;;;8.27;4.30;;;16.90;99.90;;;;;;5056139;28;20104;-67
2022/09/11 06:38:30;;;;;;;7.43;4.55;;;17.00;99.90;;;;;;5073812;28;20052;-67
2022/09/11 06:40:56;;;;;;;7.63;3.90;;;17.00;99.90;;;;;;5073538;28;20025;-67
2022/09/11 06:43:22;;;;;;;8.02;4.13;;;17.00;99.90;;;;;;5073572;28;20074;-67
2022/09/11 06:45:48;;;;;;;9.05;3.88;;;17.20;99.90;;;;;;5073788;28;20024;-67
2022/09/11 06:48:20;;;;;;;10.00;4.00;;;17.20;99.90;;;;;;5073641;28;20048;-67
2022/09/11 06:50:46;;;;;;;8.15;4.45;;;17.10;99.90;;;;;;5073512;28;20100;-67
2022/09/11 06:53:13;;;;;;;5.10;4.18;;;17.20;99.90;;;;;;5073644;28;20068;-67
2022/09/11 06:55:39;;;;;;;7.63;4.60;;;17.20;99.90;;;;;;5073994;28;20029;-67
2022/09/11 06:58:08;;;;;;;6.55;3.90;;;17.30;99.90;;;;;;5073603;28;20027;-67
2022/09/11 07:00:35;;;;;;;6.97;4.38;;;17.30;99.90;;;;;;5073193;28;20131;-66
2022/09/11 07:03:01;;;;;;;11.13;4.68;;;17.30;99.90;;;;;;5055402;28;20035;-66
2022/09/11 07:05:27;;;;;;;8.77;4.82;;;17.30;99.90;;;;;;5073678;28;20013;-67
2022/09/11 07:07:54;;;;;;;13.13;5.25;;;17.20;99.90;;;;;;5074172;28;20033;-66
2022/09/11 07:10:20;;;;;;;6.95;4.18;;;17.10;99.90;;;;;;5073328;28;20108;-66
2022/09/11 07:12:45;;;;;;;9.02;4.90;;;17.20;99.90;;;;;;5073906;28;20071;-67
2022/09/11 07:15:11;;;;;;;5.55;5.00;;;17.30;99.90;;;;;;5074635;28;20039;-68
2022/09/11 07:17:36;;;;;;;6.20;5.03;;;17.40;99.90;;;;;;5073768;28;20031;-70
2022/09/11 07:20:03;;;;;;;5.93;4.77;;;17.40;99.90;;;;;;5055544;28;20271;-66
2022/09/11 07:22:30;;;;;;;8.80;4.82;;;17.50;99.90;;;;;;5074571;28;20343;-69
2022/09/11 07:24:56;;;;;;;10.07;4.80;;;17.80;99.90;;;;;;5074402;28;20020;-67
2022/09/11 07:27:21;;;;;;;6.03;4.72;;;17.80;99.90;;;;;;5074356;28;20028;-67
2022/09/11 07:29:47;;;;;;;7.28;4.68;;;17.90;99.90;;;;;;5074987;28;20021;-67
2022/09/11 07:32:13;;;;;;;8.73;4.78;;;17.90;99.90;;;;;;5074446;28;20388;-67
2022/09/11 07:34:39;;;;;;;10.25;5.40;;;18.10;99.90;;;;;;5073484;28;20413;-66
2022/09/11 07:37:05;;;;;;;8.95;5.28;;;18.20;99.90;;;;;;5072892;28;20047;-66
2022/09/11 07:39:30;;;;;;;7.10;5.28;;;18.30;99.90;;;;;;5073080;28;20203;-66
2022/09/11 07:41:56;;;;;;;7.28;4.43;;;18.40;99.90;;;;;;5072910;28;20074;-65
2022/09/11 07:44:22;;;;;;;12.05;4.85;;;18.60;99.90;;;;;;5072980;28;20464;-68
2022/09/11 07:46:48;;;;;;;6.03;4.40;;;18.70;99.90;;;;;;5072812;28;20035;-66
2022/09/11 07:49:14;;;;;;;9.52;5.07;;;18.80;99.90;;;;;;5073339;28;20052;-69
2022/09/11 07:51:39;;;;;;;10.00;4.55;;;19.00;99.90;;;;;;5073315;28;20016;-66
2022/09/11 07:54:13;;;;;;;9.70;4.82;;;19.00;99.90;;;;;;5073757;28;20032;-70
2022/09/11 07:56:40;;;;;;;6.80;4.72;;;19.10;99.90;;;;;;5072822;28;20040;-64
2022/09/11 07:59:07;;;;;;;6.22;4.55;;;19.30;99.90;;;;;;5072800;28;20032;-66
2022/09/11 08:01:33;;;;;;;8.18;4.90;;;19.30;99.90;;;;;;5072895;28;20032;-68
2022/09/11 08:04:00;;;;;;;;;;;19.30;99.90;;;;;;5073601;28;20385;-67
2022/09/11 08:06:29;;;;;;;7.20;4.75;;;19.60;99.90;;;;;;5072598;28;19904;-67
2022/09/11 08:08:57;;;;;;;10.50;4.88;;;19.60;99.90;;;;;;5054274;28;20496;-68
2022/09/11 08:11:24;;;;;;;9.27;5.78;;;19.40;99.90;;;;;;5072739;28;20032;-68
2022/09/11 08:13:51;;;;;;;6.20;4.90;;;19.30;99.90;;;;;;5072472;28;20029;-66
2022/09/11 08:16:18;;;;;;;5.68;5.05;;;19.50;99.90;;;;;;5072545;28;20411;-67
2022/09/11 08:18:44;;;;;;;6.47;4.60;;;19.80;99.90;;;;;;5072411;28;20032;-68
2022/09/11 08:21:10;;;;;;;10.57;5.45;;;19.70;99.90;;;;;;5072842;28;20028;-68
2022/09/11 08:23:39;;;;;;;6.82;4.88;;;19.70;99.90;;;;;;5076599;28;20029;-68
2022/09/11 08:26:07;;;;;;;10.32;5.03;;;19.50;99.90;;;;;;5076788;28;20465;-67
2022/09/11 08:28:38;;;;;;;8.40;5.10;;;19.80;99.90;;;;;;5077061;28;20016;-66
2022/09/11 08:31:05;;;;;;;7.18;4.63;;;20.10;99.90;;;;;;5077352;28;20050;-66
2022/09/11 08:33:34;;;;;;;6.45;4.78;;;20.30;99.90;;;;;;5076593;28;20024;-66
2022/09/11 08:36:03;;;;;;;6.18;4.45;;;20.40;99.90;;;;;;5076242;28;20031;-66
2022/09/11 08:38:28;;;;;;;7.50;4.93;;;20.60;99.90;;;;;;5075924;28;20051;-67
2022/09/11 08:40:57;;;;;;;7.25;4.32;;;20.70;99.90;;;;;;5076258;28;20389;-67
2022/09/11 08:43:26;;;;;;;7.47;4.53;;;21.00;99.90;;;;;;5077336;28;20056;-68
2022/09/11 08:46:00;;;;;;;6.13;4.55;;;21.10;99.90;;;;;;5076502;28;20465;-66
2022/09/11 08:48:51;;;;;;;9.65;4.53;;;21.10;99.90;;;;;;5075887;28;20035;-67
2022/09/11 08:51:18;;;;;;;8.10;4.50;;;21.10;99.90;;;;;;5075992;28;20496;-67
2022/09/11 08:53:45;;;;;;;6.72;4.55;;;20.80;99.90;;;;;;5057868;28;20032;-67
2022/09/11 08:56:17;;;;;;;4.22;3.72;;;21.20;99.90;;;;;;5076019;28;20059;-67
2022/09/11 08:58:45;;;;;;;7.20;4.18;;;23.10;99.90;;;;;;5075649;28;20417;-67
2022/09/11 09:01:30;;;;;;;11.80;4.60;;;24.20;99.90;;;;;;5075452;28;20028;-66
2022/09/11 09:03:56;;;;;;;4.03;3.50;;;24.80;99.90;;;;;;5057768;28;20059;-69
2022/09/11 09:06:30;;;;;;;5.05;3.42;;;24.60;99.90;;;;;;5076091;28;20385;-67
2022/09/11 09:09:07;;;;;;;5.07;3.55;;;25.60;99.90;;;;;;5075917;28;20021;-67
2022/09/11 09:11:36;;;;;;;5.47;3.70;;;26.10;99.90;;;;;;5075234;28;20024;-67
2022/09/11 09:14:20;;;;;;;6.53;3.50;;;26.80;99.90;;;;;;5056994;28;20143;-67
2022/09/11 09:17:06;;;;;;;7.60;3.33;;;29.10;98.10;;;;;;5075508;28;20020;-67
2022/09/11 09:19:38;;;;;;;6.68;3.50;;;29.50;96.10;;;;;;5057189;28;20106;-67
2022/09/11 09:22:29;;;;;;;6.80;3.63;;;28.10;96.50;;;;;;5057133;28;20025;-69
2022/09/11 09:25:00;;;;;;;6.70;3.70;;;26.80;97.80;;;;;;5083784;28;20051;-67
2022/09/11 09:27:34;;;;;;;5.85;4.07;;;24.50;99.90;;;;;;5082849;28;20020;-67
2022/09/11 09:30:05;;;;;;;5.43;3.53;;;24.20;99.90;;;;;;5080549;28;20097;-68
2022/09/11 09:32:39;;;;;;;3.85;3.45;;;25.40;99.90;;;;;;5076019;28;20029;-68
2022/09/11 09:35:15;;;;;;;7.03;3.83;;;27.00;99.80;;;;;;5074855;28;20544;-68
2022/09/11 09:37:41;;;;;;;5.30;3.83;;;28.90;96.60;;;;;;5076603;28;20061;-67
2022/09/11 09:40:08;;;;;;;;;;;27.90;96.60;;;;;;5077003;28;20377;-68
2022/09/11 09:42:46;;;;;;;6.25;3.40;;;28.80;95.80;;;;;;5075901;28;19912;-68
2022/09/11 09:45:25;;;;;;;6.25;3.83;;;29.80;94.60;;;;;;5075906;28;20017;-68
2022/09/11 09:47:51;;;;;;;4.13;2.92;;;31.50;92.50;;;;;;5075717;28;20020;-66
2022/09/11 09:50:32;;;;;;;5.15;3.03;;;32.90;90.20;;;;;;5075309;28;20027;-67
2022/09/11 09:53:10;;;;;;;6.43;3.30;;;32.80;88.20;;;;;;5075508;28;20028;-68
2022/09/11 09:55:38;;;;;;;4.88;2.88;;;32.40;87.90;;;;;;5075716;28;20021;-68
2022/09/11 09:58:03;;;;;;;7.63;2.67;;;31.60;87.40;;;;;;5074982;28;20158;-66
2022/09/11 10:00:31;;;;;;;6.88;2.88;;;30.80;89.20;;;;;;5074735;28;20082;-67
2022/09/11 10:02:57;;;;;;;4.53;3.15;;;30.60;89.40;;;;;;5074487;28;20047;-67
2022/09/11 10:05:42;;;;;;;5.93;3.65;;;29.40;90.70;;;;;;5074608;28;20485;-67
2022/09/11 10:08:26;;;;;;;5.20;3.88;;;27.40;92.50;;;;;;5074117;28;20077;-68
2022/09/11 10:10:58;;;;;;;3.40;2.78;;;28.00;93.20;;;;;;5074430;28;20133;-68
2022/09/11 10:13:27;;;;;;;5.78;3.35;;;29.90;90.80;;;;;;5056112;28;20036;-67
2022/09/11 10:15:57;;;;;;;4.93;3.60;;;29.70;90.50;;;;;;5073989;28;20033;-67
2022/09/11 10:18:32;;;;;;;4.20;3.53;;;27.60;91.50;;;;;;5074077;28;20379;-67
2022/09/11 10:21:20;;;;;;;4.13;2.97;;;27.70;92.80;;;;;;5074354;28;20027;-67
2022/09/11 10:24:01;;;;;;;4.25;3.53;;;29.80;90.60;;;;;;5073985;28;20027;-67
2022/09/11 10:26:42;;;;;;;3.67;3.00;;;31.70;85.70;;;;;;5074035;28;20025;-67
2022/09/11 10:29:28;;;;;;;4.38;3.00;;;31.60;84.80;;;;;;5073860;28;20162;-67
2022/09/11 10:32:02;;;;;;;5.35;3.55;;;30.80;87.10;;;;;;5074811;28;20074;-66
2022/09/11 10:34:36;;;;;;;3.45;2.80;;;31.70;85.60;;;;;;5074823;28;20036;-68
2022/09/11 10:37:14;;;;;;;3.10;2.70;;;31.30;86.20;;;;;;5056200;28;20029;-68
2022/09/11 10:39:42;;;;;;;3.35;3.03;;;30.80;86.40;;;;;;5073804;28;20434;-67
2022/09/11 10:42:26;;;;;;;5.10;3.10;;;28.70;89.60;;;;;;5073680;28;20020;-67
2022/09/11 10:45:07;;;;;;;9.07;3.47;;;26.80;92.50;;;;;;5073372;28;20017;-67
2022/09/11 10:47:33;;;;;;;4.45;3.20;;;27.70;91.30;;;;;;5073573;28;20017;-67
2022/09/11 10:50:24;;;;;;;3.45;3.15;;;29.50;90.20;;;;;;5073610;28;20129;-67
2022/09/11 10:53:15;;;;;;;6.35;3.50;;;31.30;85.50;;;;;;5044044;28;20036;-68
2022/09/11 10:55:50;;;;;;;4.15;3.00;;;31.70;84.10;;;;;;5039061;28;20040;-68
2022/09/11 10:58:21;;;;;;;5.47;3.22;;;31.40;82.60;;;;;;5075495;28;20477;-68
2022/09/11 11:00:48;;;;;;;5.28;3.85;;;29.90;84.90;;;;;;5073710;28;20052;-67
2022/09/11 11:03:22;;;;;;;5.40;3.60;;;28.30;89.40;;;;;;5073356;28;20115;-69
2022/09/11 11:05:56;;;;;;;4.88;3.42;;;26.50;92.20;;;;;;5097165;22;20074;-70
2022/09/11 11:08:59;;;;;;;8.48;3.58;;;25.50;93.80;;;;;;5033200;28;20037;-70
2022/09/11 11:12:01;;;;;;;5.57;3.95;;;25.40;94.60;;;;;;5034178;28;20026;-70
2022/09/11 11:14:58;;;;;;;8.35;4.85;;;25.00;95.00;;;;;;5033665;28;20489;-70
2022/09/11 11:18:02;;;;;;;6.97;3.80;;;24.90;95.40;;;;;;5020174;28;20026;-68
2022/09/11 11:21:03;;;;;;;9.30;5.50;;;24.90;95.90;;;;;;4975826;28;20030;-69
2022/09/11 11:23:42;;;;;;;7.07;3.40;;;24.60;96.50;;;;;;5013603;28;20105;-69
2022/09/11 11:26:16;;;;;;;7.72;3.85;;;24.60;96.90;;;;;;5013635;28;20053;-69
2022/09/11 11:29:01;;;;;;;6.82;3.60;;;24.40;96.90;;;;;;5013899;28;20521;-69
2022/09/11 11:31:59;;;;;;;5.07;3.50;;;24.00;97.70;;;;;;5014134;28;20034;-69
2022/09/11 11:34:27;;;;;;;;;;;23.80;98.00;;;;;;5015285;28;20056;-69
2022/09/11 11:37:02;;;;;;;6.13;3.70;;;23.50;98.50;;;;;;4996284;28;20052;-69
2022/09/11 11:39:30;;;;;;;5.05;3.38;;;23.30;99.50;;;;;;4997187;28;20026;-69
2022/09/11 11:42:15;;;;;;;6.82;4.07;;;23.10;99.90;;;;;;5013639;28;20037;-69
2022/09/11 11:44:44;;;;;;;5.55;3.75;;;22.90;99.90;;;;;;5013908;28;20041;-69
2022/09/11 11:47:10;;;;;;;3.40;3.10;;;22.80;99.90;;;;;;5013379;28;20026;-69
2022/09/11 11:49:42;;;;;;;5.30;3.75;;;22.70;99.90;;;;;;5015085;28;20101;-71
2022/09/11 11:52:30;;;;;;;6.38;3.85;;;22.80;99.90;;;;;;5015157;28;20026;-69
2022/09/11 11:55:04;;;;;;;4.70;3.53;;;23.00;99.30;;;;;;4996384;28;20028;-69
2022/09/11 11:57:37;;;;;;;4.38;3.00;;;23.10;99.10;;;;;;4998176;28;20176;-69
2022/09/11 12:00:08;;;;;;;6.18;3.28;;;22.90;99.40;;;;;;4999926;28;20026;-69
2022/09/11 12:02:54;;;;;;;4.68;3.55;;;22.70;99.90;;;;;;5017282;28;20022;-69
2022/09/11 12:05:29;;;;;;;5.05;3.67;;;22.70;99.90;;;;;;4999686;28;20083;-70
2022/09/11 12:07:55;;;;;;;5.15;3.75;;;22.60;99.90;;;;;;5017161;28;20033;-69
2022/09/11 12:10:32;;;;;;;5.35;3.28;;;22.70;99.90;;;;;;5017118;28;20040;-69
2022/09/11 12:13:01;;;;;;;3.70;2.92;;;22.90;99.90;;;;;;5017376;28;20029;-69
2022/09/11 12:15:30;;;;;;;4.85;2.88;;;22.90;99.50;;;;;;4999639;28;20029;-69
2022/09/11 12:18:25;;;;;;;5.22;2.80;;;22.90;99.90;;;;;;4999254;28;20029;-69
2022/09/11 12:20:51;;;;;;;5.25;3.30;;;23.00;99.90;;;;;;5017086;28;20022;-70
2022/09/11 12:23:29;;;;;;;3.33;2.95;;;23.10;99.90;;;;;;4999258;28;20087;-69
2022/09/11 12:26:18;;;;;;;3.90;3.40;;;23.00;99.90;;;;;;5016794;28;20490;-70
2022/09/11 12:28:44;;;;;;;5.70;3.45;;;23.10;99.90;;;;;;5017382;28;20497;-68
2022/09/11 12:31:12;;;;;;;3.45;3.00;;;23.20;99.90;;;;;;5016751;28;20108;-69
2022/09/11 12:33:45;;;;;;;4.10;2.88;;;23.40;99.50;;;;;;5016814;28;20033;-70
2022/09/11 12:36:13;;;;;;;5.00;3.55;;;23.50;98.80;;;;;;5016883;28;20470;-70
2022/09/11 12:38:58;;;;;;;4.85;3.17;;;23.60;98.40;;;;;;4999143;28;20026;-69
2022/09/11 12:41:29;;;;;;;4.63;3.38;;;23.60;98.00;;;;;;5000067;28;20026;-69
2022/09/11 12:43:55;;;;;;;6.05;3.20;;;23.70;97.80;;;;;;4999103;28;20050;-69
2022/09/11 12:46:21;;;;;;;4.90;3.08;;;23.70;97.70;;;;;;5016450;28;20026;-69
2022/09/11 12:48:56;;;;;;;3.83;3.05;;;23.90;97.20;;;;;;4999114;28;20033;-69
2022/09/11 12:51:37;;;;;;;3.85;2.53;;;23.90;97.60;;;;;;5016799;28;20057;-70
2022/09/11 12:54:19;;;;;;;5.18;2.95;;;23.90;97.40;;;;;;5016533;28;20030;-70
2022/09/11 12:56:47;;;;;;;5.45;2.70;;;24.00;97.40;;;;;;5016815;28;20028;-68
2022/09/11 12:59:25;;;;;;;3.08;2.20;;;24.00;97.60;;;;;;4998903;28;20036;-69
2022/09/11 13:01:51;;;;;;;4.50;2.65;;;23.80;97.10;;;;;;4998424;28;20039;-70
2022/09/11 13:04:22;;;;;;;3.45;2.42;;;23.70;97.90;;;;;;5016024;28;20423;-69
2022/09/11 13:06:55;;;;;;;3.88;2.67;;;23.80;97.80;;;;;;5015989;28;20065;-70
2022/09/11 13:09:30;;;;;;;2.65;2.30;;;23.60;97.40;;;;;;4999251;28;20056;-69